Time;durP1;ratioP1;P1;durP2;ratioP2;P2;SDS_P1;SDS_P2;PMS_P1;PMS_P2;Temp;Humidity;BMP_temperature;BMP_pressure;BME280_temperature;BME280_humidity;BME280_pressure;Samples;Min_cycle;Max_cycle;Signal;HPM_P1;HPM_P2
2022/05/23 00:02:09;;;;;;;2.27;2.07;;;19.40;99.90;;;;;;5006394;28;20188;-77
2022/05/23 00:04:35;;;;;;;3.27;2.37;;;19.40;99.90;;;;;;5008018;28;20711;-77
2022/05/23 00:07:02;;;;;;;2.10;1.67;;;19.30;99.90;;;;;;5007577;28;20517;-77
2022/05/23 00:09:29;;;;;;;2.70;2.47;;;19.30;99.90;;;;;;5007400;28;20459;-76
2022/05/23 00:11:55;;;;;;;4.60;2.40;;;19.30;99.90;;;;;;5007665;28;20421;-77
2022/05/23 00:14:21;;;;;;;7.37;2.40;;;19.30;99.90;;;;;;5007366;28;20411;-77
2022/05/23 00:16:49;;;;;;;3.70;2.70;;;19.30;99.90;;;;;;5006251;28;20427;-76
2022/05/23 00:19:15;;;;;;;2.50;2.30;;;19.20;99.90;;;;;;5005672;28;20451;-76
2022/05/23 00:21:45;;;;;;;2.50;1.80;;;19.10;99.90;;;;;;5006912;28;20779;-75
2022/05/23 00:24:13;;;;;;;2.93;2.70;;;19.10;99.90;;;;;;5006748;28;20418;-76
2022/05/23 00:26:40;;;;;;;2.07;1.93;;;19.20;99.90;;;;;;5007069;28;21503;-77
2022/05/23 00:29:06;;;;;;;2.73;2.53;;;19.20;99.90;;;;;;5006992;28;20542;-77
2022/05/23 00:31:32;;;;;;;2.50;2.30;;;19.10;99.90;;;;;;5005575;28;20518;-77
2022/05/23 00:36:41;;;;;;;2.50;2.30;;;18.90;99.90;;;;;;5030771;22;20230;-73
2022/05/23 00:39:07;;;;;;;2.60;2.07;;;18.90;99.90;;;;;;5004351;28;20415;-72
2022/05/23 00:44:29;;;;;;;2.67;2.43;;;18.80;99.90;;;;;;5004833;28;20263;-73
2022/05/23 00:47:00;;;;;;;4.50;2.50;;;18.80;99.90;;;;;;5005823;28;20431;-73
2022/05/23 00:49:33;;;;;;;2.57;2.10;;;18.80;99.90;;;;;;5005415;28;20749;-74
2022/05/23 00:52:03;;;;;;;2.50;2.30;;;18.80;99.90;;;;;;5004965;28;20407;-73
2022/05/23 00:54:35;;;;;;;2.10;2.00;;;18.70;99.90;;;;;;5005055;28;20411;-71
2022/05/23 00:57:01;;;;;;;3.67;2.07;;;18.60;99.90;;;;;;5004235;28;21511;-72
2022/05/23 00:59:30;;;;;;;2.33;2.13;;;18.50;99.90;;;;;;5004215;28;20431;-71
2022/05/23 01:01:57;;;;;;;2.90;2.47;;;18.50;99.90;;;;;;5005636;28;20912;-72
2022/05/23 01:04:23;;;;;;;4.30;2.53;;;18.40;99.90;;;;;;5003938;28;20419;-72
2022/05/23 01:06:48;;;;;;;2.17;2.07;;;18.40;99.90;;;;;;5005219;28;20526;-72
2022/05/23 01:09:14;;;;;;;3.23;2.40;;;18.40;99.90;;;;;;5005565;28;20514;-73
2022/05/23 01:11:40;;;;;;;3.03;2.13;;;18.30;99.90;;;;;;5005579;28;20178;-71
2022/05/23 01:14:05;;;;;;;2.57;2.37;;;18.10;99.90;;;;;;5005317;28;20286;-72
2022/05/23 01:16:32;;;;;;;2.50;2.30;;;18.10;99.90;;;;;;5005011;28;20215;-72
2022/05/23 01:18:57;;;;;;;2.50;2.30;;;18.10;99.90;;;;;;5005185;28;20183;-73
2022/05/23 01:21:50;;;;;;;1.93;1.80;;;18.10;99.90;;;;;;5003825;28;20670;-72
2022/05/23 01:24:27;;;;;;;2.50;2.30;;;18.20;99.90;;;;;;5005251;28;20219;-73
2022/05/23 01:26:55;;;;;;;5.67;3.07;;;18.10;99.90;;;;;;5005436;28;20434;-73
2022/05/23 01:29:20;;;;;;;2.50;2.30;;;18.00;99.90;;;;;;5004738;28;20464;-73
2022/05/23 01:31:46;;;;;;;2.10;1.90;;;18.00;99.90;;;;;;5005172;28;20993;-72
2022/05/23 01:34:12;;;;;;;3.63;2.80;;;18.00;99.90;;;;;;5005034;28;20600;-72
2022/05/23 01:36:37;;;;;;;2.40;2.20;;;18.00;99.90;;;;;;5004810;28;20806;-72
2022/05/23 01:39:03;;;;;;;3.40;2.20;;;18.00;99.90;;;;;;5003716;28;20217;-72
2022/05/23 01:41:29;;;;;;;2.87;2.17;;;17.90;99.90;;;;;;5005127;28;20211;-72
2022/05/23 01:43:54;;;;;;;2.50;2.30;;;17.90;99.90;;;;;;5003252;28;20198;-72
2022/05/23 01:46:20;;;;;;;3.13;2.53;;;17.80;99.90;;;;;;5003265;28;20203;-72
2022/05/23 01:48:46;;;;;;;2.63;2.43;;;17.70;99.90;;;;;;5003304;28;20187;-74
2022/05/23 01:51:12;;;;;;;3.20;2.53;;;17.70;99.90;;;;;;5004507;28;21304;-72
2022/05/23 01:53:38;;;;;;;2.10;1.90;;;17.70;99.90;;;;;;5004985;28;20808;-73
2022/05/23 01:56:05;;;;;;;2.87;2.60;;;17.70;99.90;;;;;;5019738;28;20249;-73
2022/05/23 02:01:16;;;;;;;2.27;2.17;;;17.70;99.90;;;;;;5004137;28;21438;-73
2022/05/23 02:03:47;;;;;;;2.93;2.73;;;17.70;99.90;;;;;;5004872;28;20414;-72
2022/05/23 02:06:13;;;;;;;2.80;2.17;;;17.80;99.90;;;;;;5005593;28;21068;-73
2022/05/23 02:08:39;;;;;;;2.30;2.20;;;17.80;99.90;;;;;;5006168;28;20415;-74
2022/05/23 02:11:06;;;;;;;3.17;2.87;;;17.80;99.90;;;;;;5005950;28;20820;-72
2022/05/23 02:13:34;;;;;;;4.33;2.73;;;17.80;99.90;;;;;;5007129;28;20442;-74
2022/05/23 02:16:00;;;;;;;2.90;2.70;;;17.80;99.90;;;;;;5005295;28;20461;-73
2022/05/23 02:18:27;;;;;;;2.67;2.47;;;17.80;99.90;;;;;;5004847;28;20410;-72
2022/05/23 02:20:53;;;;;;;4.30;2.23;;;17.70;99.90;;;;;;5004585;28;20192;-70
2022/05/23 02:23:18;;;;;;;2.73;2.53;;;17.70;99.90;;;;;;5004833;28;20793;-72
2022/05/23 02:25:45;;;;;;;3.07;2.20;;;17.70;99.90;;;;;;5004231;28;21114;-71
2022/05/23 02:28:11;;;;;;;3.53;2.13;;;17.70;99.90;;;;;;5004701;28;20174;-73
2022/05/23 02:30:37;;;;;;;2.97;2.33;;;17.70;99.90;;;;;;5004065;28;20413;-72
2022/05/23 02:33:03;;;;;;;2.80;2.60;;;17.80;99.90;;;;;;5004589;28;20462;-72
2022/05/23 02:35:29;;;;;;;4.90;2.30;;;17.80;99.90;;;;;;5003963;28;20179;-74
2022/05/23 02:37:55;;;;;;;4.87;2.50;;;17.70;99.90;;;;;;5004220;28;20411;-72
2022/05/23 02:40:21;;;;;;;3.17;2.50;;;17.70;99.90;;;;;;5002758;28;20790;-73
2022/05/23 02:42:47;;;;;;;3.57;2.57;;;17.60;99.90;;;;;;5004186;28;20195;-73
2022/05/23 02:45:12;;;;;;;2.63;2.40;;;17.60;99.90;;;;;;5003842;28;20430;-71
2022/05/23 02:47:39;;;;;;;2.50;2.27;;;17.50;99.90;;;;;;5004104;28;20219;-72
2022/05/23 02:50:06;;;;;;;2.80;2.50;;;17.50;99.90;;;;;;5004174;28;20206;-72
2022/05/23 02:52:31;;;;;;;3.77;3.00;;;17.60;99.90;;;;;;5004349;28;20488;-72
2022/05/23 02:54:57;;;;;;;2.60;2.00;;;17.60;99.90;;;;;;5004168;28;20788;-72
2022/05/23 02:57:23;;;;;;;2.53;2.30;;;17.70;99.90;;;;;;5004090;28;20313;-73
2022/05/23 02:59:48;;;;;;;3.40;2.57;;;17.70;99.90;;;;;;5003722;28;20204;-73
2022/05/23 03:04:58;;;;;;;3.40;2.47;;;17.50;99.90;;;;;;5003875;28;20234;-73
2022/05/23 03:07:24;;;;;;;2.93;2.20;;;17.50;99.90;;;;;;5006669;28;20446;-73
2022/05/23 03:09:49;;;;;;;2.77;2.57;;;17.60;99.90;;;;;;5007750;28;20183;-73
2022/05/23 03:12:15;;;;;;;2.70;2.50;;;17.60;99.90;;;;;;5007487;28;20233;-73
2022/05/23 03:14:41;;;;;;;3.40;3.10;;;17.60;99.90;;;;;;5007505;28;20652;-73
2022/05/23 03:17:07;;;;;;;2.53;2.33;;;17.40;99.90;;;;;;5007390;28;20203;-72
2022/05/23 03:19:38;;;;;;;3.50;2.37;;;17.50;99.90;;;;;;5007394;28;20179;-72
2022/05/23 03:27:36;;;;;;;2.30;2.10;;;17.60;99.90;;;;;;5007545;28;20441;-72
2022/05/23 03:30:02;;;;;;;4.00;2.30;;;17.70;99.90;;;;;;5005633;28;20430;-71
2022/05/23 03:32:28;;;;;;;2.40;2.20;;;17.70;99.90;;;;;;5006944;28;20580;-71
2022/05/23 03:34:53;;;;;;;3.80;2.07;;;17.70;99.90;;;;;;5007379;28;20977;-72
2022/05/23 03:37:19;;;;;;;2.07;1.97;;;17.70;99.90;;;;;;5006671;28;20214;-72
2022/05/23 03:39:45;;;;;;;2.80;2.30;;;17.70;99.90;;;;;;5007135;28;20217;-70
2022/05/23 03:42:10;;;;;;;3.60;2.40;;;17.80;99.90;;;;;;5006057;28;20174;-72
2022/05/23 03:44:36;;;;;;;2.33;2.13;;;17.70;99.90;;;;;;5006819;28;20188;-72
2022/05/23 03:47:03;;;;;;;2.70;2.50;;;17.60;99.90;;;;;;5006477;28;20746;-73
2022/05/23 03:49:30;;;;;;;4.40;2.60;;;17.60;99.90;;;;;;5006861;28;20174;-71
2022/05/23 03:51:56;;;;;;;2.80;2.60;;;17.70;99.90;;;;;;5006897;28;20864;-70
2022/05/23 03:54:21;;;;;;;4.47;2.00;;;17.50;99.90;;;;;;5006706;28;20482;-72
2022/05/23 03:56:47;;;;;;;2.63;2.43;;;17.50;99.90;;;;;;5006624;28;20207;-73
2022/05/23 03:59:13;;;;;;;2.40;2.00;;;17.60;99.90;;;;;;5005144;28;20218;-72
2022/05/23 04:01:38;;;;;;;2.40;2.20;;;17.70;99.90;;;;;;5006387;28;20668;-73
2022/05/23 04:04:04;;;;;;;2.37;2.17;;;18.00;99.90;;;;;;5006420;28;20188;-72
2022/05/23 04:06:30;;;;;;;3.63;2.70;;;18.10;99.90;;;;;;5006254;28;20253;-70
2022/05/23 04:08:56;;;;;;;17.23;4.50;;;18.30;99.90;;;;;;5006883;28;20422;-73
2022/05/23 04:11:22;;;;;;;4.30;3.70;;;18.40;99.90;;;;;;5006463;28;20286;-73
2022/05/23 04:13:47;;;;;;;3.97;3.60;;;18.40;99.90;;;;;;5006276;28;20495;-74
2022/05/23 04:16:13;;;;;;;4.90;4.33;;;18.40;99.90;;;;;;5005744;28;20196;-72
2022/05/23 04:18:39;;;;;;;5.50;3.80;;;18.00;99.90;;;;;;5006079;28;20196;-73
2022/05/23 04:21:05;;;;;;;3.37;3.03;;;17.60;99.90;;;;;;5006766;28;20410;-74
2022/05/23 04:23:31;;;;;;;3.13;2.83;;;17.40;99.90;;;;;;5006343;28;20198;-74
2022/05/23 04:26:01;;;;;;;3.23;3.03;;;17.30;99.90;;;;;;5006241;28;20518;-74
2022/05/23 04:28:27;;;;;;;2.77;2.57;;;17.40;99.90;;;;;;5006224;28;20193;-72
2022/05/23 04:30:53;;;;;;;5.80;4.17;;;17.50;99.90;;;;;;5005897;28;20434;-73
2022/05/23 04:36:03;;;;;;;5.03;3.70;;;17.80;99.90;;;;;;5005915;28;20719;-71
2022/05/23 04:38:29;;;;;;;5.80;3.53;;;17.70;99.90;;;;;;5004926;28;20569;-74
2022/05/23 04:40:54;;;;;;;4.80;4.00;;;17.80;99.90;;;;;;5005885;28;20974;-73
2022/05/23 04:43:20;;;;;;;4.20;3.80;;;17.60;99.90;;;;;;5006159;28;20183;-74
2022/05/23 04:45:46;;;;;;;4.33;3.93;;;17.70;99.90;;;;;;5005122;28;20254;-74
2022/05/23 04:50:56;;;;;;;4.77;3.57;;;17.40;99.90;;;;;;5005585;28;20694;-74
2022/05/23 04:53:21;;;;;;;4.90;3.37;;;17.20;99.90;;;;;;5005604;28;20468;-72
2022/05/23 04:55:47;;;;;;;4.50;3.80;;;17.10;99.90;;;;;;5005606;28;20199;-72
2022/05/23 04:58:13;;;;;;;5.53;3.90;;;17.00;99.90;;;;;;5005545;28;20180;-72
2022/05/23 05:00:40;;;;;;;5.23;3.40;;;17.00;99.90;;;;;;5005225;28;20178;-73
2022/05/23 05:03:06;;;;;;;4.83;3.77;;;17.00;99.90;;;;;;5005318;28;20426;-71
2022/05/23 05:05:33;;;;;;;4.20;3.90;;;17.20;99.90;;;;;;5005457;28;20436;-72
2022/05/23 05:07:59;;;;;;;3.77;3.20;;;17.10;99.90;;;;;;5005585;28;20484;-72
2022/05/23 05:10:26;;;;;;;4.30;3.37;;;17.00;99.90;;;;;;5005241;28;20500;-72
2022/05/23 05:12:53;;;;;;;3.63;3.00;;;17.00;99.90;;;;;;5004016;28;20600;-74
2022/05/23 05:15:19;;;;;;;3.40;3.07;;;17.00;99.90;;;;;;5003092;28;20546;-73
2022/05/23 05:17:45;;;;;;;4.40;4.00;;;17.20;99.90;;;;;;5003931;28;20431;-73
2022/05/23 05:20:12;;;;;;;6.10;5.10;;;17.30;99.90;;;;;;5004279;28;20436;-74
2022/05/23 05:22:38;;;;;;;5.33;3.90;;;17.20;99.90;;;;;;5005012;28;20180;-74
2022/05/23 05:25:05;;;;;;;3.00;2.80;;;17.20;99.90;;;;;;5006097;28;20414;-73
2022/05/23 05:27:31;;;;;;;2.87;2.67;;;17.20;99.90;;;;;;5007332;28;20222;-74
2022/05/23 05:29:57;;;;;;;3.70;3.40;;;17.20;99.90;;;;;;5004888;28;20426;-74
2022/05/23 05:32:42;;;;;;;3.80;3.50;;;17.30;99.90;;;;;;5005700;28;20211;-74
2022/05/23 05:35:27;;;;;;;3.80;3.50;;;17.30;99.90;;;;;;5006021;28;21014;-73
2022/05/23 05:38:10;;;;;;;3.80;3.50;;;17.40;99.90;;;;;;5006731;28;20445;-73
2022/05/23 05:40:36;;;;;;;4.80;4.13;;;17.10;99.90;;;;;;5004554;28;20410;-73
2022/05/23 05:43:08;;;;;;;4.03;3.73;;;17.10;99.90;;;;;;5005747;28;20467;-74
2022/05/23 05:45:43;;;;;;;3.83;3.50;;;17.10;99.90;;;;;;5004301;28;20222;-71
2022/05/23 05:48:10;;;;;;;5.00;3.80;;;17.20;99.90;;;;;;5005289;28;20442;-73
2022/05/23 05:50:39;;;;;;;4.23;3.83;;;17.40;99.90;;;;;;5005054;28;20476;-73
2022/05/23 05:53:10;;;;;;;4.00;3.40;;;17.50;99.90;;;;;;5003272;28;20492;-71
2022/05/23 05:55:37;;;;;;;4.70;4.00;;;17.50;99.90;;;;;;5004893;28;20947;-72
2022/05/23 05:58:03;;;;;;;4.70;3.50;;;17.50;99.90;;;;;;5005267;28;20517;-73
2022/05/23 06:00:29;;;;;;;4.93;4.50;;;17.60;99.90;;;;;;5004704;28;20867;-75
2022/05/23 06:02:54;;;;;;;4.17;3.80;;;17.70;99.90;;;;;;5004777;28;20410;-72
2022/05/23 06:05:20;;;;;;;4.33;3.93;;;17.70;99.90;;;;;;5004612;28;20184;-75
2022/05/23 06:11:23;;;;;;;4.50;4.07;;;18.00;99.90;;;;;;5004924;28;20187;-71
2022/05/23 06:13:17;;;;;;;5.63;4.53;;;17.90;99.90;;;;;;5004035;28;20460;-72
2022/05/23 06:15:44;;;;;;;5.93;4.30;;;17.70;99.90;;;;;;5004292;28;20439;-72
2022/05/23 06:18:10;;;;;;;5.37;4.60;;;17.90;99.90;;;;;;5004746;28;20821;-71
2022/05/23 06:20:36;;;;;;;7.20;4.47;;;18.10;99.90;;;;;;5004446;28;20422;-72
2022/05/23 06:23:02;;;;;;;5.33;4.60;;;18.20;99.90;;;;;;5003756;28;20462;-73
2022/05/23 06:25:28;;;;;;;6.90;4.50;;;18.10;99.90;;;;;;5003928;28;20188;-72
2022/05/23 06:27:54;;;;;;;5.23;4.83;;;18.10;99.90;;;;;;5004323;28;20422;-71
2022/05/23 06:30:19;;;;;;;6.97;4.93;;;18.10;99.90;;;;;;5003734;28;20427;-72
2022/05/23 06:32:46;;;;;;;5.03;4.53;;;18.30;99.90;;;;;;5003970;28;20215;-71
2022/05/23 06:35:12;;;;;;;4.90;3.90;;;18.40;99.90;;;;;;5003248;28;20187;-72
2022/05/23 06:37:40;;;;;;;5.77;4.67;;;18.60;99.90;;;;;;5031564;23;20496;-72
2022/05/23 06:40:08;;;;;;;4.70;4.20;;;18.60;99.90;;;;;;5012487;28;20859;-78
2022/05/23 06:42:34;;;;;;;7.20;5.13;;;18.60;99.90;;;;;;5015322;28;20493;-74
2022/05/23 06:45:01;;;;;;;4.87;4.40;;;18.40;99.90;;;;;;5018101;28;20990;-76
2022/05/23 06:47:27;;;;;;;4.57;4.27;;;18.40;99.90;;;;;;5017136;28;20486;-77
2022/05/23 06:49:53;;;;;;;5.37;4.20;;;18.50;99.90;;;;;;5019907;28;20472;-74
2022/05/23 06:52:19;;;;;;;5.50;4.00;;;18.40;99.90;;;;;;5020763;28;20414;-76
2022/05/23 06:54:44;;;;;;;6.07;4.43;;;18.40;99.90;;;;;;5021302;28;20524;-75
2022/05/23 06:57:10;;;;;;;5.33;4.10;;;18.40;99.90;;;;;;5017894;28;20453;-73
2022/05/23 06:59:36;;;;;;;8.60;4.83;;;18.10;99.90;;;;;;5015843;28;20172;-74
2022/05/23 07:02:03;;;;;;;5.07;4.00;;;18.00;99.90;;;;;;5032616;28;20456;-75
2022/05/23 07:12:47;;;;;;;4.90;4.23;;;18.30;99.90;;;;;;5020871;28;20448;-75
2022/05/23 07:15:12;;;;;;;7.00;4.40;;;18.50;99.90;;;;;;5013707;28;20907;-76
2022/05/23 07:17:38;;;;;;;5.43;3.90;;;18.50;99.90;;;;;;5014208;28;20375;-74
2022/05/23 07:20:05;;;;;;;3.80;3.50;;;18.70;99.90;;;;;;5020647;28;20168;-74
2022/05/23 07:22:32;;;;;;;3.73;3.43;;;18.80;99.90;;;;;;5018229;28;20175;-76
2022/05/23 07:24:58;;;;;;;4.20;3.30;;;19.00;99.90;;;;;;5018418;28;20471;-77
2022/05/23 07:27:26;;;;;;;4.10;3.73;;;19.50;99.90;;;;;;5018192;28;20470;-74
2022/05/23 07:29:51;;;;;;;3.50;3.20;;;19.70;99.90;;;;;;5015512;28;20423;-74
2022/05/23 07:32:17;;;;;;;4.00;3.70;;;20.00;99.90;;;;;;5018484;28;20415;-74
2022/05/23 07:34:43;;;;;;;3.10;2.90;;;19.90;99.90;;;;;;5019004;28;20259;-74
2022/05/23 07:37:10;;;;;;;5.03;3.40;;;19.80;99.90;;;;;;5016051;28;20556;-74
2022/05/23 07:39:37;;;;;;;3.77;3.47;;;20.30;99.90;;;;;;5012019;28;20697;-76
2022/05/23 07:42:05;;;;;;;3.10;2.80;;;20.30;99.90;;;;;;5017625;28;20493;-75
2022/05/23 07:44:31;;;;;;;3.80;3.27;;;20.20;99.90;;;;;;5013042;28;20505;-74
2022/05/23 07:46:57;;;;;;;3.40;3.10;;;20.40;99.90;;;;;;5033142;28;20470;-75
2022/05/23 07:49:23;;;;;;;3.20;3.00;;;20.60;99.90;;;;;;5018208;28;20263;-76
2022/05/23 07:51:49;;;;;;;3.30;3.00;;;20.70;99.90;;;;;;5008840;28;20215;-76
2022/05/23 08:02:27;;;;;;;4.30;3.30;;;21.30;99.90;;;;;;5023149;28;20409;-76
2022/05/23 08:04:54;;;;;;;3.53;2.83;;;21.40;99.90;;;;;;5007069;28;20423;-75
2022/05/23 08:07:19;;;;;;;2.53;2.33;;;21.60;99.90;;;;;;5006194;28;20192;-74
2022/05/23 08:09:45;;;;;;;3.50;3.20;;;21.60;99.90;;;;;;5014748;28;20915;-74
2022/05/23 08:12:14;;;;;;;2.50;2.30;;;21.40;99.90;;;;;;5005108;28;20608;-74
2022/05/23 08:14:39;;;;;;;2.90;2.57;;;21.90;99.90;;;;;;5009788;28;20281;-76
2022/05/23 08:17:05;;;;;;;4.83;2.37;;;22.30;99.90;;;;;;5007053;28;20541;-74
2022/05/23 08:19:31;;;;;;;5.30;2.80;;;22.50;99.90;;;;;;5024490;28;20176;-74
2022/05/23 08:21:58;;;;;;;5.80;3.80;;;22.40;99.90;;;;;;5014359;28;20662;-75
2022/05/23 08:24:24;;;;;;;2.60;2.40;;;22.50;99.90;;;;;;5014163;28;20818;-75
2022/05/23 08:26:50;;;;;;;3.80;2.80;;;22.40;99.90;;;;;;5005761;28;20497;-76
2022/05/23 08:29:16;;;;;;;3.63;2.70;;;22.20;99.90;;;;;;5006128;28;20180;-75
2022/05/23 08:31:42;;;;;;;4.10;2.63;;;22.30;99.90;;;;;;5021421;28;20213;-76
2022/05/23 08:34:08;;;;;;;3.30;2.63;;;22.40;99.90;;;;;;5018081;28;20458;-75
2022/05/23 08:36:34;;;;;;;3.33;2.87;;;22.30;99.90;;;;;;5012277;28;20939;-75
2022/05/23 08:39:00;;;;;;;6.00;3.57;;;22.20;99.90;;;;;;5018802;28;20485;-76
2022/05/23 08:41:35;;;;;;;4.37;3.47;;;22.00;99.90;;;;;;5021112;28;20811;-75
2022/05/23 08:44:16;;;;;;;4.77;2.90;;;21.90;99.90;;;;;;5025050;28;20413;-76
2022/05/23 08:47:18;;;;;;;3.70;3.40;;;21.90;99.90;;;;;;5009206;28;20449;-76
2022/05/23 08:50:14;;;;;;;4.37;3.60;;;21.60;99.90;;;;;;5013758;28;20413;-75
2022/05/23 08:52:49;;;;;;;4.50;2.90;;;21.70;99.90;;;;;;5024918;28;20499;-75
2022/05/23 08:55:19;;;;;;;5.77;3.83;;;21.50;99.90;;;;;;5009107;28;20410;-75
2022/05/23 08:58:00;;;;;;;3.93;2.97;;;21.70;99.90;;;;;;5007128;28;20488;-74
2022/05/23 09:00:35;;;;;;;3.97;3.10;;;21.90;99.90;;;;;;5008051;28;20524;-75
2022/05/23 09:03:17;;;;;;;3.77;2.63;;;22.10;99.90;;;;;;5008263;28;20434;-74
2022/05/23 09:05:49;;;;;;;3.90;3.30;;;22.40;99.90;;;;;;5023435;28;20417;-76
2022/05/23 09:08:20;;;;;;;3.60;3.10;;;22.40;99.90;;;;;;5007117;28;20462;-74
2022/05/23 09:10:54;;;;;;;5.33;2.87;;;22.70;99.90;;;;;;5012951;28;20892;-76
2022/05/23 09:13:21;;;;;;;3.67;3.37;;;22.80;99.90;;;;;;5024936;28;20449;-74
2022/05/23 09:15:50;;;;;;;3.87;3.57;;;22.70;99.90;;;;;;5014455;28;20430;-76
2022/05/23 09:18:23;;;;;;;4.53;4.13;;;22.40;99.90;;;;;;5023110;28;20430;-73
2022/05/23 09:20:57;;;;;;;3.80;3.10;;;22.10;99.90;;;;;;5004649;28;20823;-74
2022/05/23 09:23:38;;;;;;;5.30;3.67;;;22.10;99.90;;;;;;5010186;28;20410;-74
2022/05/23 09:26:11;;;;;;;4.90;4.40;;;21.80;99.90;;;;;;5010978;28;20420;-74
2022/05/23 09:28:39;;;;;;;4.13;3.70;;;21.90;99.90;;;;;;5012951;28;20402;-78
2022/05/23 09:31:30;;;;;;;4.50;4.10;;;22.20;99.90;;;;;;5007575;28;20418;-75
2022/05/23 09:33:56;;;;;;;5.50;4.00;;;22.50;99.90;;;;;;5007307;28;20536;-74
2022/05/23 09:36:38;;;;;;;3.97;3.60;;;22.60;99.90;;;;;;5019358;28;20544;-75
2022/05/23 09:39:10;;;;;;;4.07;3.77;;;22.70;99.90;;;;;;5008027;28;20422;-74
2022/05/23 09:50:37;;;;;;;6.00;3.73;;;23.40;99.90;;;;;;5008207;28;20410;-76
2022/05/23 09:53:04;;;;;;;3.60;3.00;;;23.70;99.90;;;;;;5023711;28;20464;-73
2022/05/23 09:55:37;;;;;;;4.00;3.50;;;24.20;99.90;;;;;;5022631;28;20456;-75
2022/05/23 09:58:07;;;;;;;4.40;3.40;;;24.30;99.90;;;;;;5022065;28;20442;-77
2022/05/23 10:00:35;;;;;;;4.10;3.70;;;24.40;99.90;;;;;;5004174;28;20469;-74
2022/05/23 10:03:06;;;;;;;5.10;3.67;;;24.40;99.90;;;;;;5004039;28;20410;-75
2022/05/23 10:05:42;;;;;;;4.20;3.73;;;24.60;99.90;;;;;;5013369;28;20417;-74
2022/05/23 10:08:12;;;;;;;7.93;4.00;;;24.50;99.90;;;;;;5008017;28;20430;-75
2022/05/23 10:10:51;;;;;;;4.60;4.30;;;23.60;99.90;;;;;;5017319;28;20416;-74
2022/05/23 10:13:23;;;;;;;4.27;3.37;;;24.00;99.90;;;;;;5021596;28;20552;-74
2022/05/23 10:15:57;;;;;;;4.27;3.83;;;24.50;99.90;;;;;;5005571;28;20978;-75
2022/05/23 10:18:31;;;;;;;3.23;2.93;;;24.80;99.90;;;;;;5014630;28;20456;-76
2022/05/23 10:20:58;;;;;;;6.47;3.73;;;24.60;99.90;;;;;;5002691;28;20407;-74
2022/05/23 10:23:33;;;;;;;5.33;3.60;;;24.60;99.90;;;;;;5008494;28;20529;-76
2022/05/23 10:26:16;;;;;;;6.63;4.00;;;24.60;99.90;;;;;;5017865;28;20405;-75
2022/05/23 10:28:54;;;;;;;4.97;3.70;;;24.50;99.90;;;;;;5023661;28;20435;-77
2022/05/23 10:31:28;;;;;;;7.33;3.93;;;24.50;99.90;;;;;;5009077;28;20472;-74
2022/05/23 10:34:04;;;;;;;6.70;4.50;;;24.90;99.90;;;;;;5010859;28;20458;-75
2022/05/23 10:36:31;;;;;;;3.90;3.50;;;24.80;99.90;;;;;;5014451;28;20910;-75
2022/05/23 10:42:07;;;;;;;4.13;3.83;;;25.00;99.90;;;;;;5005683;28;20395;-76
2022/05/23 10:44:48;;;;;;;3.83;3.43;;;24.80;99.90;;;;;;5003577;28;20411;-74
2022/05/23 10:47:34;;;;;;;4.83;3.50;;;24.70;99.90;;;;;;5003585;28;20422;-75
2022/05/23 10:50:24;;;;;;;4.57;3.43;;;24.50;99.90;;;;;;5017290;28;20455;-74
2022/05/23 10:53:05;;;;;;;3.77;3.47;;;24.80;99.90;;;;;;5013547;28;20450;-75
2022/05/23 10:55:47;;;;;;;3.60;3.10;;;24.80;99.90;;;;;;5012428;28;20444;-75
2022/05/23 10:58:39;;;;;;;3.90;3.60;;;24.60;99.90;;;;;;5004672;28;20423;-74
2022/05/23 11:01:17;;;;;;;3.50;3.20;;;24.60;99.90;;;;;;5004618;28;20415;-76
2022/05/23 11:04:01;;;;;;;4.40;4.03;;;24.30;99.90;;;;;;5007042;28;20935;-76
2022/05/23 11:06:51;;;;;;;4.43;3.80;;;24.20;99.90;;;;;;5004649;28;20411;-74
2022/05/23 11:09:50;;;;;;;4.30;3.90;;;24.20;99.90;;;;;;5015370;28;20432;-74
2022/05/23 11:12:44;;;;;;;4.90;3.47;;;24.30;99.90;;;;;;5010638;28;20421;-78
2022/05/23 11:15:49;;;;;;;3.40;3.10;;;24.10;99.90;;;;;;5014171;28;20411;-75
2022/05/23 11:18:22;;;;;;;5.37;4.47;;;24.00;99.90;;;;;;5014451;28;20436;-76
2022/05/23 11:20:52;;;;;;;8.23;4.30;;;23.90;99.90;;;;;;5011742;28;20410;-78
2022/05/23 11:23:41;;;;;;;5.10;4.70;;;23.40;99.90;;;;;;5010265;28;20444;-76
2022/05/23 11:26:21;;;;;;;8.47;4.70;;;22.90;99.90;;;;;;5006792;28;20966;-76
2022/05/23 11:34:39;;;;;;;6.20;5.60;;;21.50;99.90;;;;;;5006500;28;20465;-78
2022/05/23 11:37:42;;;;;;;7.83;4.67;;;21.40;99.90;;;;;;5019348;28;20457;-76
2022/05/23 11:40:08;;;;;;;7.67;6.53;;;21.10;99.90;;;;;;5018364;28;20420;-75
2022/05/23 11:42:49;;;;;;;8.03;6.40;;;20.90;99.90;;;;;;5023913;28;20506;-74
2022/05/23 11:45:57;;;;;;;14.33;5.83;;;20.80;99.90;;;;;;5015295;28;20790;-76
2022/05/23 11:48:39;;;;;;;6.50;5.10;;;20.80;99.90;;;;;;5006651;28;20431;-76
2022/05/23 11:51:36;;;;;;;9.17;5.57;;;20.60;99.90;;;;;;5016559;28;20442;-77
2022/05/23 11:54:06;;;;;;;10.70;4.80;;;20.50;99.90;;;;;;5016706;28;20528;-76
2022/05/23 11:56:41;;;;;;;6.83;3.40;;;20.50;99.90;;;;;;5010638;28;20788;-74
2022/05/23 11:59:24;;;;;;;6.27;4.10;;;20.40;99.90;;;;;;5006693;28;20489;-75
2022/05/23 12:02:26;;;;;;;7.70;4.20;;;20.40;99.90;;;;;;5017164;28;20431;-74
2022/05/23 12:04:53;;;;;;;8.23;3.70;;;20.30;99.90;;;;;;4966373;28;20430;-76
2022/05/23 12:07:44;;;;;;;4.73;3.10;;;20.20;99.90;;;;;;5018196;28;21486;-77
2022/05/23 12:10:22;;;;;;;6.57;3.53;;;20.10;99.90;;;;;;5024996;28;20425;-73
2022/05/23 12:12:49;;;;;;;7.40;3.10;;;19.70;99.90;;;;;;5017902;28;20897;-75
2022/05/23 12:15:42;;;;;;;6.80;3.20;;;19.50;99.90;;;;;;5025290;28;20441;-76
2022/05/23 12:18:09;;;;;;;5.93;2.50;;;19.70;99.90;;;;;;5020230;28;20441;-75
2022/05/23 12:20:45;;;;;;;6.30;3.40;;;19.30;99.90;;;;;;5019169;28;21535;-77
2022/05/23 12:23:29;;;;;;;3.20;2.80;;;19.00;99.90;;;;;;5010187;28;20500;-75
2022/05/23 12:26:10;;;;;;;6.40;3.17;;;19.10;99.90;;;;;;5019620;28;20415;-75
2022/05/23 12:29:16;;;;;;;8.40;3.13;;;19.20;99.90;;;;;;5020126;28;20493;-74
2022/05/23 12:32:04;;;;;;;5.27;2.83;;;19.20;99.90;;;;;;5013172;28;20848;-76
2022/05/23 12:34:32;;;;;;;4.33;2.50;;;19.30;99.90;;;;;;5021830;28;20454;-76
2022/05/23 12:36:58;;;;;;;4.40;2.53;;;19.20;99.90;;;;;;5013601;28;20470;-74
2022/05/23 12:39:34;;;;;;;6.27;2.80;;;19.10;99.90;;;;;;5016133;28;20454;-76
2022/05/23 12:42:21;;;;;;;6.53;3.30;;;19.10;99.90;;;;;;5018267;28;20475;-75
2022/05/23 12:45:08;;;;;;;5.30;2.93;;;19.20;99.90;;;;;;5023777;28;20448;-75
2022/05/23 12:47:34;;;;;;;5.90;2.80;;;19.60;99.90;;;;;;5018500;28;20449;-75
2022/05/23 12:50:06;;;;;;;6.03;3.20;;;19.90;99.90;;;;;;5011465;28;20779;-76
2022/05/23 12:53:04;;;;;;;7.80;3.43;;;20.30;99.90;;;;;;5021167;28;20279;-76
2022/05/23 12:55:56;;;;;;;6.70;3.20;;;20.40;99.90;;;;;;5017106;28;20414;-76
2022/05/23 12:58:44;;;;;;;6.43;3.13;;;20.60;99.90;;;;;;5015804;28;20914;-74
2022/05/23 13:01:18;;;;;;;6.57;3.70;;;20.70;99.90;;;;;;5030800;28;20602;-75
2022/05/23 13:03:53;;;;;;;5.90;3.30;;;21.40;99.90;;;;;;5015649;28;20414;-74
2022/05/23 13:06:28;;;;;;;10.00;3.40;;;21.80;99.90;;;;;;5031998;28;21006;-76
2022/05/23 13:09:01;;;;;;;7.07;3.47;;;22.30;99.90;;;;;;5011935;28;20433;-77
2022/05/23 13:11:44;;;;;;;4.33;3.17;;;22.50;99.90;;;;;;5005728;28;20476;-76
2022/05/23 13:14:10;;;;;;;5.77;3.10;;;23.20;99.90;;;;;;5018325;28;20822;-76
2022/05/23 13:16:38;;;;;;;7.57;2.80;;;23.60;99.90;;;;;;5019512;28;20439;-75
2022/05/23 13:22:09;;;;;;;6.83;2.93;;;23.70;99.90;;;;;;5011099;28;20911;-76
2022/05/23 13:24:50;;;;;;;3.37;2.10;;;24.00;99.90;;;;;;5012282;28;20416;-76
2022/05/23 13:27:30;;;;;;;4.03;2.23;;;25.20;99.90;;;;;;5018830;28;20585;-74
2022/05/23 13:30:02;;;;;;;5.47;2.63;;;26.80;99.90;;;;;;5020807;28;20417;-77
2022/05/23 13:32:28;;;;;;;10.70;3.00;;;27.40;99.90;;;;;;5012358;28;20922;-76
2022/05/23 13:34:56;;;;;;;5.67;2.23;;;28.40;99.90;;;;;;5017100;28;20406;-77
2022/05/23 13:37:40;;;;;;;4.03;2.03;;;29.30;99.90;;;;;;5009642;28;20504;-74
2022/05/23 13:40:15;;;;;;;4.20;2.30;;;28.80;99.90;;;;;;5013797;28;20411;-78
2022/05/23 13:42:41;;;;;;;6.10;2.57;;;28.80;99.90;;;;;;5015671;28;20405;-77
2022/05/23 13:45:14;;;;;;;3.20;2.50;;;30.20;99.90;;;;;;5013479;28;20433;-76
2022/05/23 13:47:45;;;;;;;3.70;2.10;;;31.00;99.90;;;;;;5010119;28;20431;-77
2022/05/23 13:50:27;;;;;;;3.97;2.50;;;31.80;98.00;;;;;;5010704;28;20510;-79
2022/05/23 13:53:08;;;;;;;5.50;2.53;;;31.70;97.70;;;;;;5017012;28;20476;-76
2022/05/23 13:55:39;;;;;;;3.33;2.10;;;30.70;99.20;;;;;;5016130;28;20409;-76
2022/05/23 13:58:12;;;;;;;6.60;2.40;;;31.70;97.60;;;;;;5020819;28;20457;-77
2022/05/23 14:00:40;;;;;;;4.67;2.80;;;31.90;97.90;;;;;;5013209;28;20406;-77
2022/05/23 14:03:12;;;;;;;4.20;2.00;;;32.40;96.70;;;;;;5010106;28;20794;-80
2022/05/23 14:05:49;;;;;;;6.37;2.00;;;32.10;96.50;;;;;;5030233;28;20438;-77
2022/05/23 14:08:19;;;;;;;4.53;2.13;;;32.50;95.00;;;;;;5012306;28;20462;-77